createdAt,value
2023-02-05T00:04:15.538Z,66.53
2023-02-05T00:09:18.562Z,66.42
2023-02-05T00:14:22.647Z,66.39
2023-02-05T00:19:43.057Z,66.48
2023-02-05T00:24:46.427Z,66.88
2023-02-05T00:29:49.438Z,67.16
2023-02-05T00:34:52.496Z,67.29
2023-02-05T00:39:55.551Z,67.80
2023-02-05T00:44:58.387Z,68.32
2023-02-05T00:50:01.662Z,68.20
2023-02-05T00:55:05.276Z,68.92
2023-02-05T01:00:09.278Z,69.19
2023-02-05T01:05:12.763Z,69.47
2023-02-05T01:10:16.418Z,69.43
2023-02-05T01:15:20.060Z,69.59
2023-02-05T01:20:22.863Z,69.90
2023-02-05T01:25:25.886Z,70.24
2023-02-05T01:30:28.678Z,70.49
2023-02-05T01:35:32.637Z,71.07
2023-02-05T01:40:35.890Z,71.19
2023-02-05T01:45:50.876Z,71.62
2023-02-05T01:50:59.685Z,71.84
2023-02-05T01:56:20.117Z,72.37
2023-02-05T02:01:24.767Z,72.61
2023-02-05T02:06:27.747Z,72.08
2023-02-05T02:11:36.647Z,72.08
2023-02-05T02:16:40.767Z,71.83
2023-02-05T02:22:28.008Z,72.00
2023-02-05T02:27:45.941Z,72.28
2023-02-05T02:33:21.605Z,72.47
2023-02-05T02:38:34.264Z,73.06
2023-02-05T02:43:54.756Z,73.70
2023-02-05T02:49:05.293Z,74.29
2023-02-05T02:54:14.056Z,74.91
2023-02-05T02:59:28.659Z,75.39
2023-02-05T03:04:39.081Z,76.03
2023-02-05T03:09:56.893Z,76.30
2023-02-05T03:15:00.580Z,76.39
2023-02-05T03:20:19.338Z,76.69
2023-02-05T03:25:25.276Z,76.64
2023-02-05T03:30:57.245Z,76.59
2023-02-05T03:36:49.052Z,76.89
2023-02-05T03:42:06.955Z,76.79
2023-02-05T03:47:19.432Z,76.90
2023-02-05T03:52:55.387Z,76.92
2023-02-05T03:58:10.641Z,76.94
2023-02-05T04:03:15.410Z,76.60
2023-02-05T04:08:18.398Z,76.77
2023-02-05T04:13:21.359Z,76.92
2023-02-05T04:18:24.487Z,77.13
2023-02-05T04:23:27.472Z,76.94
2023-02-05T04:28:30.921Z,77.00
2023-02-05T04:33:33.891Z,77.03
2023-02-05T04:38:37.018Z,76.76
2023-02-05T04:43:39.966Z,76.66
2023-02-05T04:48:42.980Z,76.27
2023-02-05T04:53:45.687Z,76.15
2023-02-05T04:58:48.559Z,76.01
2023-02-05T05:03:51.763Z,76.07
2023-02-05T05:08:54.774Z,76.27
2023-02-05T05:13:58.203Z,75.42
2023-02-05T05:19:01.206Z,75.77
2023-02-05T05:24:04.516Z,75.85
2023-02-05T05:29:07.670Z,76.38
2023-02-05T05:34:10.689Z,76.50
2023-02-05T05:39:33.467Z,76.07
2023-02-05T05:44:36.270Z,76.05
2023-02-05T05:49:39.225Z,75.71
2023-02-05T05:54:42.272Z,75.88
2023-02-05T05:59:45.263Z,76.17
2023-02-05T06:04:48.450Z,76.50
2023-02-05T06:09:51.501Z,76.25
2023-02-05T06:14:54.223Z,76.13
2023-02-05T06:19:57.255Z,75.83
2023-02-05T06:25:00.255Z,75.86
2023-02-05T06:30:04.455Z,75.76
2023-02-05T06:35:07.935Z,75.54
2023-02-05T06:40:11.521Z,75.67
2023-02-05T06:45:14.948Z,75.46
2023-02-05T06:50:18.028Z,75.51
2023-02-05T06:55:21.418Z,75.67
2023-02-05T07:00:24.555Z,75.67
2023-02-05T07:05:27.363Z,75.28
2023-02-05T07:10:30.649Z,74.66
2023-02-05T07:15:37.707Z,74.55
2023-02-05T07:20:40.727Z,75.01
2023-02-05T07:25:43.595Z,73.81
2023-02-05T07:30:47.901Z,69.78
2023-02-05T07:35:50.641Z,65.46
2023-02-05T07:40:53.571Z,62.56
2023-02-05T07:46:02.469Z,59.88
2023-02-05T07:51:07.054Z,56.96
2023-02-05T07:56:10.064Z,56.09
2023-02-05T08:01:13.122Z,54.46
2023-02-05T08:06:16.697Z,53.82
2023-02-05T08:11:20.075Z,54.34
2023-02-05T08:16:22.865Z,52.53
2023-02-05T08:21:26.006Z,52.41
2023-02-05T08:26:28.904Z,51.49
2023-02-05T08:31:32.683Z,48.82
2023-02-05T08:36:35.794Z,48.00
2023-02-05T08:41:38.932Z,47.90
2023-02-05T08:46:49.920Z,45.60
2023-02-05T08:51:53.296Z,45.40
2023-02-05T08:56:56.412Z,44.89
2023-02-05T09:01:59.631Z,44.46
2023-02-05T09:07:02.381Z,44.71
2023-02-05T09:12:06.085Z,46.05
2023-02-05T09:17:10.980Z,45.05
2023-02-05T09:22:14.008Z,45.31
2023-02-05T09:27:17.040Z,45.13
2023-02-05T09:32:20.033Z,46.32
2023-02-05T09:37:22.892Z,47.65
2023-02-05T09:42:52.029Z,47.18
2023-02-05T09:48:04.794Z,46.88
2023-02-05T09:53:13.481Z,46.52
2023-02-05T09:58:26.673Z,47.21
2023-02-05T10:03:42.975Z,46.93
2023-02-05T10:08:48.778Z,46.34
2023-02-05T10:14:17.286Z,46.52
2023-02-05T10:20:03.272Z,45.94
2023-02-05T10:25:09.585Z,46.24
2023-02-05T10:30:52.757Z,46.91
2023-02-05T10:36:06.861Z,46.96
2023-02-05T10:41:45.641Z,46.88
2023-02-05T10:46:54.089Z,45.17
2023-02-05T10:51:56.958Z,45.06
2023-02-05T10:57:00.876Z,42.71
2023-02-05T11:02:10.172Z,42.28
2023-02-05T11:07:26.331Z,42.74
2023-02-05T11:12:32.951Z,41.14
2023-02-05T11:17:38.031Z,39.32
2023-02-05T11:22:40.893Z,38.25
2023-02-05T11:27:56.864Z,39.42
2023-02-05T11:33:27.602Z,40.10
2023-02-05T11:38:57.193Z,38.78
2023-02-05T11:44:02.316Z,38.38
2023-02-05T11:49:05.711Z,38.80
2023-02-05T11:54:27.158Z,38.43
2023-02-05T11:59:32.334Z,40.06
2023-02-05T12:04:47.216Z,40.48
2023-02-05T12:09:53.069Z,41.03
2023-02-05T12:15:14.407Z,41.37
2023-02-05T12:20:23.374Z,40.95
2023-02-05T12:25:53.292Z,40.90
2023-02-05T12:31:12.147Z,41.47
2023-02-05T12:37:01.853Z,42.70
2023-02-05T12:42:11.973Z,42.38
2023-02-05T12:47:32.776Z,42.70
2023-02-05T12:53:27.654Z,41.93
2023-02-05T12:58:42.442Z,42.07
2023-02-05T13:03:51.582Z,42.23
2023-02-05T13:43:46.000Z,42.83
2023-02-05T13:49:50.706Z,43.55
2023-02-05T13:55:24.101Z,43.55
2023-02-05T14:00:28.381Z,43.33
2023-02-05T14:05:39.740Z,43.70
2023-02-05T14:10:45.670Z,43.36
2023-02-05T14:15:50.155Z,43.26
2023-02-05T14:20:53.090Z,43.89
2023-02-05T14:26:07.381Z,44.16
2023-02-05T14:31:47.794Z,44.08
2023-02-05T14:36:51.498Z,43.89
2023-02-05T14:41:59.270Z,44.23
2023-02-05T14:47:20.061Z,44.25
2023-02-05T14:52:22.865Z,44.81
2023-02-05T14:58:03.179Z,44.33
2023-02-05T15:03:06.189Z,45.03
2023-02-05T15:08:36.692Z,45.08
2023-02-05T15:13:40.396Z,45.84
2023-02-05T15:19:06.199Z,46.26
2023-02-05T15:24:24.124Z,46.75
2023-02-05T15:29:41.617Z,46.89
2023-02-05T15:34:51.210Z,47.56
2023-02-05T15:39:58.357Z,48.01
2023-02-05T15:45:45.209Z,47.89
2023-02-05T15:50:56.265Z,48.74
2023-02-05T15:56:13.077Z,49.38
2023-02-05T16:01:29.649Z,50.57
2023-02-05T16:06:37.006Z,51.69
2023-02-05T16:11:43.084Z,52.05
2023-02-05T16:17:04.495Z,52.63
2023-02-05T16:22:32.340Z,53.21
2023-02-05T16:27:46.386Z,53.48
2023-02-05T16:32:53.497Z,54.07
2023-02-05T16:37:57.544Z,54.36
2023-02-05T16:43:05.806Z,54.62
2023-02-05T16:48:27.156Z,54.59
2023-02-05T16:53:37.035Z,54.88
2023-02-05T16:58:53.870Z,54.70
2023-02-05T17:03:57.542Z,54.68
2023-02-05T17:09:01.134Z,55.15
2023-02-05T17:14:35.742Z,55.11
2023-02-05T17:19:38.791Z,55.50
2023-02-05T17:24:48.984Z,56.43
2023-02-05T17:29:52.081Z,57.57
2023-02-05T17:34:55.433Z,57.86
2023-02-05T17:39:58.211Z,58.82
2023-02-05T17:45:02.213Z,59.33
2023-02-05T17:50:05.720Z,59.34
2023-02-05T17:55:14.361Z,59.69
2023-02-05T18:00:27.613Z,60.18
2023-02-05T18:05:30.933Z,60.92
2023-02-05T18:10:34.178Z,60.95
2023-02-05T18:15:37.481Z,62.33
2023-02-05T18:20:40.418Z,63.10
2023-02-05T18:25:43.181Z,63.05
2023-02-05T18:30:46.391Z,62.86
2023-02-05T18:35:49.370Z,63.03
2023-02-05T18:40:52.652Z,63.36
2023-02-05T18:45:55.982Z,63.36
2023-02-05T18:50:58.878Z,63.44
2023-02-05T18:56:20.434Z,63.80
2023-02-05T19:01:23.592Z,63.78
2023-02-05T19:06:26.613Z,64.30
2023-02-05T19:11:30.974Z,64.25
2023-02-05T19:16:36.026Z,64.35
2023-02-05T19:21:39.154Z,64.31
2023-02-05T19:26:44.202Z,64.96
2023-02-05T19:31:48.198Z,65.04
2023-02-05T19:36:51.418Z,65.57
2023-02-05T19:41:56.086Z,66.24
2023-02-05T19:46:59.131Z,66.73
2023-02-05T19:52:02.078Z,67.06
2023-02-05T19:57:04.980Z,67.78
2023-02-05T20:02:12.759Z,68.25
2023-02-05T20:07:16.060Z,68.64
2023-02-05T20:12:19.276Z,68.78
2023-02-05T20:17:47.032Z,69.51
2023-02-05T20:23:08.798Z,70.47
2023-02-05T20:28:12.209Z,71.10
2023-02-05T20:33:15.340Z,71.48
2023-02-05T20:38:18.296Z,72.16
2023-02-05T20:43:21.787Z,72.67
2023-02-05T20:48:24.747Z,72.79
2023-02-05T20:53:27.791Z,73.50
2023-02-05T20:58:31.722Z,73.77
2023-02-05T21:03:36.884Z,74.21
2023-02-05T21:08:41.538Z,74.75
2023-02-05T21:13:46.625Z,74.95
2023-02-05T21:18:51.274Z,75.06
2023-02-05T21:24:01.320Z,75.77
2023-02-05T21:29:10.191Z,76.15
2023-02-05T21:34:27.177Z,75.99
2023-02-05T21:39:30.173Z,76.39
2023-02-05T21:44:33.121Z,76.79
2023-02-05T21:49:35.904Z,76.87
2023-02-05T21:54:39.183Z,76.94
2023-02-05T21:59:42.117Z,77.62
2023-02-05T22:04:45.102Z,77.43
2023-02-05T22:09:48.182Z,77.85
2023-02-05T22:14:51.087Z,77.79
2023-02-05T22:19:54.058Z,77.91
2023-02-05T22:24:57.673Z,77.96
2023-02-05T22:30:00.653Z,77.89
2023-02-05T22:35:04.657Z,78.71
2023-02-05T22:40:08.474Z,78.53
2023-02-05T22:45:11.815Z,78.87
2023-02-05T22:50:15.396Z,79.12
2023-02-05T22:55:18.618Z,78.86
2023-02-05T23:00:21.360Z,78.26
2023-02-05T23:05:26.869Z,78.58
2023-02-05T23:10:29.833Z,78.77
2023-02-05T23:15:33.291Z,78.80
2023-02-05T23:20:36.426Z,79.21
2023-02-05T23:25:39.588Z,79.43
2023-02-05T23:30:42.813Z,79.55
2023-02-05T23:35:45.893Z,79.63
2023-02-05T23:40:49.007Z,80.13
2023-02-05T23:45:54.155Z,80.30
2023-02-05T23:50:57.119Z,80.37
2023-02-05T23:56:00.902Z,80.29
